KHYR/HYR METAR and TAF weather

Enter ICAO airport designator
Station Type Date Time Source
KHYR METAR 2020/07/12 03:53 UTC NOAA

KHYR 120353Z AUTO 00000KT 10SM CLR 16/14 A2992 RMK AO2 SLP129 T01610144


Station Type Date Time Source
KHYR Decoded METAR 2020/07/12 03:53 UTC NOAA

HAYWARD MUNICIPAL AIRPORT, WI, United States (KHYR) 46-01N 91-27W 370M
Jul 11, 2020 - 11:53 PM EDT / 2020.07.12 0353 UTC
Wind: Calm:0
Visibility: 10 mile(s):0
Sky conditions: clear
Temperature: 61.0 F (16.1 C)
Dew Point: 57.9 F (14.4 C)
Relative Humidity: 89%
Pressure (altimeter): 29.92 in. Hg (1013 hPa)
ob: KHYR 120353Z AUTO 00000KT 10SM CLR 16/14 A2992 RMK AO2 SLP129 T01610144
cycle: 4

Station Type Date Time Source
KHYR TAF 2020/07/11 18:42 UTC NOAA

TAF KHYR 111740Z 1118/1218 VRB05KT P6SM FEW050 SCT060
FM120800 00000KT 4SM BR FEW050
TEMPO 1209/1211 1/2SM FG
FM121200 33005KT P6SM SCT040

Example: see airport list